createdAt,value
2019-02-17T00:04:11.484Z,94.50
2019-02-17T00:09:17.307Z,94.59
2019-02-17T00:14:24.019Z,94.52
2019-02-17T00:19:29.705Z,94.48
2019-02-17T00:24:35.156Z,94.54
2019-02-17T00:29:40.684Z,94.62
2019-02-17T00:34:46.164Z,94.59
2019-02-17T00:39:52.114Z,94.65
2019-02-17T00:44:57.624Z,94.67
2019-02-17T00:50:03.110Z,94.74
2019-02-17T00:55:08.842Z,94.76
2019-02-17T01:00:14.617Z,94.80
2019-02-17T01:05:20.133Z,94.87
2019-02-17T01:10:26.453Z,94.83
2019-02-17T01:15:31.948Z,94.74
2019-02-17T01:20:37.473Z,94.63
2019-02-17T01:25:42.988Z,94.53
2019-02-17T01:30:48.446Z,94.47
2019-02-17T01:35:53.937Z,94.45
2019-02-17T01:40:59.467Z,94.38
2019-02-17T01:46:05.084Z,94.30
2019-02-17T01:51:10.642Z,94.30
2019-02-17T01:56:16.007Z,94.29
2019-02-17T02:01:21.510Z,94.34
2019-02-17T02:06:27.048Z,94.24
2019-02-17T02:11:32.707Z,94.25
2019-02-17T02:16:39.144Z,94.23
2019-02-17T02:21:44.591Z,94.24
2019-02-17T02:26:50.294Z,94.22
2019-02-17T02:31:55.648Z,94.09
2019-02-17T02:37:01.086Z,94.04
2019-02-17T02:42:06.707Z,94.04
2019-02-17T02:47:12.225Z,94.20
2019-02-17T02:52:17.609Z,94.20
2019-02-17T02:57:22.978Z,94.18
2019-02-17T03:02:28.438Z,94.21
2019-02-17T03:07:33.904Z,94.25
2019-02-17T03:12:39.334Z,94.23
2019-02-17T03:17:44.810Z,94.23
2019-02-17T03:22:51.121Z,94.35
2019-02-17T03:27:56.615Z,94.37
2019-02-17T03:33:02.075Z,94.42
2019-02-17T03:38:07.578Z,94.54
2019-02-17T03:43:13.529Z,94.55
2019-02-17T03:48:18.980Z,94.54
2019-02-17T03:53:24.372Z,94.72
2019-02-17T03:58:29.964Z,94.74
2019-02-17T04:03:35.287Z,94.76
2019-02-17T04:08:40.829Z,94.83
2019-02-17T04:13:46.150Z,94.87
2019-02-17T04:18:51.725Z,94.85
2019-02-17T04:23:57.279Z,94.94
2019-02-17T04:29:02.864Z,94.90
2019-02-17T04:34:08.306Z,94.89
2019-02-17T04:39:13.842Z,95.00
2019-02-17T04:44:19.268Z,95.04
2019-02-17T04:49:24.752Z,95.16
2019-02-17T04:54:30.194Z,95.23
2019-02-17T04:59:35.590Z,95.25
2019-02-17T05:04:41.070Z,95.26
2019-02-17T05:09:46.496Z,95.27
2019-02-17T05:14:51.922Z,95.29
2019-02-17T05:19:57.385Z,95.40
2019-02-17T05:25:02.936Z,95.39
2019-02-17T05:30:09.740Z,95.48
2019-02-17T05:35:16.003Z,95.45
2019-02-17T05:40:21.504Z,95.42
2019-02-17T05:45:26.842Z,95.40
2019-02-17T05:50:32.278Z,95.41
2019-02-17T05:55:37.636Z,95.44
2019-02-17T06:00:43.257Z,95.46
2019-02-17T06:05:48.627Z,95.50
2019-02-17T06:10:54.215Z,95.46
2019-02-17T06:15:59.682Z,95.44
2019-02-17T06:21:05.158Z,95.31
2019-02-17T06:26:10.605Z,95.27
2019-02-17T06:31:18.519Z,95.18
2019-02-17T06:36:24.841Z,95.13
2019-02-17T06:41:30.387Z,95.00
2019-02-17T06:46:40.711Z,94.93
2019-02-17T06:51:46.162Z,95.08
2019-02-17T06:56:55.156Z,95.18
2019-02-17T07:02:00.550Z,95.29
2019-02-17T07:07:07.614Z,95.38
2019-02-17T07:12:13.031Z,95.46
2019-02-17T07:17:18.466Z,95.62
2019-02-17T07:22:23.831Z,95.66
2019-02-17T07:27:29.330Z,95.67
2019-02-17T07:32:34.729Z,95.71
2019-02-17T07:37:40.221Z,95.64
2019-02-17T07:42:45.780Z,95.63
2019-02-17T07:47:51.217Z,95.51
2019-02-17T07:52:56.586Z,95.55
2019-02-17T07:58:02.171Z,95.39
2019-02-17T08:03:07.578Z,95.12
2019-02-17T08:08:13.085Z,94.97
2019-02-17T08:13:18.711Z,94.70
2019-02-17T08:18:25.271Z,94.59
2019-02-17T08:23:30.804Z,94.37
2019-02-17T08:28:36.424Z,94.17
2019-02-17T08:33:41.912Z,93.95
2019-02-17T08:38:47.386Z,93.84
2019-02-17T08:43:52.801Z,93.86
2019-02-17T08:48:58.304Z,93.95
2019-02-17T08:54:03.783Z,93.90
2019-02-17T08:59:09.424Z,94.02
2019-02-17T09:04:14.780Z,93.98
2019-02-17T09:09:20.344Z,94.08
2019-02-17T09:14:25.665Z,94.11
2019-02-17T09:19:31.210Z,94.15
2019-02-17T09:24:36.825Z,94.06
2019-02-17T09:29:42.402Z,94.11
2019-02-17T09:34:47.857Z,94.09
2019-02-17T09:39:53.585Z,94.10
2019-02-17T09:44:58.948Z,94.22
2019-02-17T09:50:04.512Z,94.16
2019-02-17T09:55:10.458Z,94.11
2019-02-17T10:00:16.219Z,94.32
2019-02-17T10:05:21.588Z,94.43
2019-02-17T10:10:27.204Z,94.32
2019-02-17T10:15:32.596Z,93.89
2019-02-17T10:20:38.133Z,93.83
2019-02-17T10:25:43.554Z,93.77
2019-02-17T10:30:49.288Z,93.59
2019-02-17T10:35:54.874Z,93.53
2019-02-17T10:41:00.404Z,93.19
2019-02-17T10:46:06.164Z,92.91
2019-02-17T10:51:11.734Z,92.81
2019-02-17T10:56:17.150Z,93.15
2019-02-17T11:01:22.703Z,92.05
2019-02-17T11:06:28.058Z,91.27
2019-02-17T11:11:33.600Z,89.33
2019-02-17T11:16:39.095Z,88.78
2019-02-17T11:21:44.796Z,87.00
2019-02-17T11:26:50.193Z,86.47
2019-02-17T11:31:55.644Z,85.70
2019-02-17T11:37:01.099Z,86.56
2019-02-17T11:42:06.639Z,83.85
2019-02-17T11:47:12.048Z,81.39
2019-02-17T11:52:17.748Z,81.61
2019-02-17T11:57:23.160Z,82.12
2019-02-17T12:02:28.616Z,82.87
2019-02-17T12:07:34.024Z,84.37
2019-02-17T12:12:40.157Z,80.51
2019-02-17T12:17:46.739Z,78.66
2019-02-17T12:22:58.247Z,78.32
2019-02-17T12:28:07.476Z,76.00
2019-02-17T12:33:19.280Z,77.14
2019-02-17T12:38:20.017Z,76.64
2019-02-17T12:43:25.555Z,77.53
2019-02-17T12:48:31.022Z,77.60
2019-02-17T12:53:36.423Z,78.48
2019-02-17T12:58:42.001Z,78.43
2019-02-17T13:03:48.089Z,79.77
2019-02-17T13:08:53.558Z,80.11
2019-02-17T13:13:59.083Z,80.19
2019-02-17T13:19:04.629Z,81.05
2019-02-17T13:24:10.025Z,80.06
2019-02-17T13:29:15.571Z,78.27
2019-02-17T13:34:20.979Z,79.18
2019-02-17T13:39:26.446Z,78.25
2019-02-17T13:44:31.994Z,76.23
2019-02-17T13:49:37.539Z,76.58
2019-02-17T13:54:43.020Z,77.51
2019-02-17T13:59:48.723Z,77.25
2019-02-17T14:04:54.056Z,77.71
2019-02-17T14:09:59.570Z,78.68
2019-02-17T14:15:05.746Z,76.39
2019-02-17T14:20:13.853Z,75.09
2019-02-17T14:25:19.825Z,75.87
2019-02-17T14:30:25.295Z,75.45
2019-02-17T14:35:30.771Z,75.76
2019-02-17T14:40:36.398Z,75.27
2019-02-17T14:45:41.920Z,74.18
2019-02-17T14:50:53.525Z,75.11
2019-02-17T14:55:58.974Z,75.02
2019-02-17T15:01:04.593Z,75.97
2019-02-17T15:06:10.175Z,77.27
2019-02-17T15:11:15.848Z,77.39
2019-02-17T15:16:21.618Z,78.07
2019-02-17T15:21:27.157Z,77.65
2019-02-17T15:26:32.782Z,77.22
2019-02-17T15:31:38.280Z,77.06
2019-02-17T15:36:46.244Z,77.54
2019-02-17T15:41:51.715Z,78.44
2019-02-17T15:46:57.215Z,78.71
2019-02-17T15:52:02.692Z,80.05
2019-02-17T15:57:08.292Z,80.80
2019-02-17T16:02:13.945Z,81.03
2019-02-17T16:07:19.485Z,80.77
2019-02-17T16:12:26.261Z,80.12
2019-02-17T16:17:31.827Z,79.99
2019-02-17T16:22:37.324Z,80.35
2019-02-17T16:27:42.902Z,80.65
2019-02-17T16:32:50.998Z,80.39
2019-02-17T16:37:58.572Z,80.27
2019-02-17T16:43:04.111Z,80.28
2019-02-17T16:48:09.864Z,80.38
2019-02-17T16:53:15.344Z,80.20
2019-02-17T16:58:20.819Z,80.43
2019-02-17T17:03:26.618Z,80.75
2019-02-17T17:08:34.775Z,81.19
2019-02-17T17:13:40.415Z,81.47
2019-02-17T17:18:45.800Z,81.79
2019-02-17T17:23:51.245Z,82.14
2019-02-17T17:28:56.655Z,82.44
2019-02-17T17:34:02.197Z,82.59
2019-02-17T17:39:08.439Z,82.86
2019-02-17T17:44:14.007Z,83.10
2019-02-17T17:49:19.662Z,83.04
2019-02-17T17:54:25.582Z,83.14
2019-02-17T17:59:31.092Z,83.40
2019-02-17T18:04:36.573Z,83.70
2019-02-17T18:09:42.205Z,84.10
2019-02-17T18:14:47.667Z,84.72
2019-02-17T18:19:53.148Z,85.02
2019-02-17T18:24:58.652Z,85.46
2019-02-17T18:30:05.015Z,85.68
2019-02-17T18:35:19.239Z,86.02
2019-02-17T18:40:18.433Z,86.05
2019-02-17T18:45:23.855Z,85.95
2019-02-17T18:50:29.307Z,85.99
2019-02-17T18:55:34.858Z,86.03
2019-02-17T19:00:40.557Z,86.31
2019-02-17T19:05:46.093Z,86.13
2019-02-17T19:10:51.667Z,86.03
2019-02-17T19:15:57.209Z,85.99
2019-02-17T19:21:02.665Z,86.12
2019-02-17T19:26:08.227Z,86.08
2019-02-17T19:31:13.690Z,86.31
2019-02-17T19:36:19.185Z,86.49
2019-02-17T19:41:24.653Z,86.76
2019-02-17T19:46:30.142Z,87.01
2019-02-17T19:51:35.631Z,87.43
2019-02-17T19:56:41.124Z,87.52
2019-02-17T20:01:46.556Z,87.59
2019-02-17T20:06:53.392Z,87.65
2019-02-17T20:11:58.871Z,87.57
2019-02-17T20:17:04.388Z,88.15
2019-02-17T20:22:09.726Z,88.66
2019-02-17T20:27:15.343Z,88.76
2019-02-17T20:32:20.710Z,88.88
2019-02-17T20:37:26.641Z,88.89
2019-02-17T20:42:32.145Z,89.04
2019-02-17T20:47:37.857Z,89.15
2019-02-17T20:52:43.178Z,89.20
2019-02-17T20:57:48.754Z,89.14
2019-02-17T21:02:54.241Z,89.18
2019-02-17T21:07:59.779Z,89.29
2019-02-17T21:13:05.161Z,89.37
2019-02-17T21:18:10.859Z,89.54
2019-02-17T21:23:16.476Z,89.73
2019-02-17T21:28:21.973Z,89.82
2019-02-17T21:33:27.471Z,89.98
2019-02-17T21:38:33.146Z,90.01
2019-02-17T21:43:38.587Z,90.12
2019-02-17T21:48:44.124Z,90.12
2019-02-17T21:53:49.666Z,90.21
2019-02-17T21:58:55.048Z,90.26
2019-02-17T22:04:00.482Z,90.41
2019-02-17T22:09:08.482Z,90.52
2019-02-17T22:14:13.978Z,90.75
2019-02-17T22:19:19.629Z,90.71
2019-02-17T22:24:26.075Z,90.58
2019-02-17T22:29:31.485Z,90.64
2019-02-17T22:34:36.940Z,90.85
2019-02-17T22:39:42.430Z,90.84
2019-02-17T22:44:47.949Z,90.82
2019-02-17T22:49:53.596Z,90.62
2019-02-17T22:54:59.137Z,90.54
2019-02-17T23:00:06.576Z,90.54
2019-02-17T23:05:12.104Z,90.62
2019-02-17T23:10:17.603Z,90.72
2019-02-17T23:15:23.065Z,90.82
2019-02-17T23:20:28.618Z,90.79
2019-02-17T23:25:34.116Z,90.85
2019-02-17T23:30:39.530Z,90.89
2019-02-17T23:35:45.083Z,90.89
2019-02-17T23:40:50.593Z,91.02
2019-02-17T23:45:55.938Z,91.03
2019-02-17T23:51:01.431Z,90.84
2019-02-17T23:56:09.935Z,90.84
